Time;durP1;ratioP1;P1;durP2;ratioP2;P2;SDS_P1;SDS_P2;PMS_P1;PMS_P2;Temp;Humidity;BMP_temperature;BMP_pressure;BME280_temperature;BME280_humidity;BME280_pressure;Samples;Min_cycle;Max_cycle;Signal;HPM_P1;HPM_P2
2022/07/08 00:00:35;;;;;;;8.07;3.90;;;;;;;15.90;88.98;98302.16;4518377;31;20489;-84
2022/07/08 00:03:03;;;;;;;9.70;3.75;;;;;;;16.05;88.20;98301.22;4518302;31;20145;-84
2022/07/08 00:05:30;;;;;;;8.60;3.80;;;;;;;16.30;87.18;98295.38;4517928;31;20095;-84
2022/07/08 00:07:57;;;;;;;9.77;4.00;;;;;;;16.13;87.72;98295.56;4518418;31;20128;-84
2022/07/08 00:10:24;;;;;;;7.43;3.87;;;;;;;15.94;88.12;98289.78;4503931;31;20152;-84
2022/07/08 00:12:52;;;;;;;8.82;3.83;;;;;;;15.79;89.25;98299.38;4503663;31;20171;-84
2022/07/08 00:15:20;;;;;;;8.02;4.00;;;;;;;16.11;87.88;98289.59;4518085;31;20139;-84
2022/07/08 00:17:48;;;;;;;8.10;3.72;;;;;;;16.20;87.18;98296.84;4503905;31;20092;-84
2022/07/08 00:20:15;;;;;;;9.80;4.55;;;;;;;16.26;86.68;98299.06;4517712;31;20513;-84
2022/07/08 00:22:42;;;;;;;8.65;4.18;;;;;;;15.99;88.03;98293.81;4517979;31;20144;-84
2022/07/08 00:25:09;;;;;;;8.93;4.35;;;;;;;16.28;87.09;98289.41;4503642;31;20105;-84
2022/07/08 00:27:36;;;;;;;10.13;4.50;;;;;;;16.25;86.87;98286.16;4517815;31;20158;-84
2022/07/08 00:30:04;;;;;;;7.95;3.75;;;;;;;16.19;86.95;98287.38;4503651;31;20158;-84
2022/07/08 00:32:31;;;;;;;10.02;4.43;;;;;;;16.18;87.46;98291.75;4503699;31;20167;-84
2022/07/08 00:34:58;;;;;;;7.55;3.58;;;;;;;16.42;85.76;98286.78;4519418;31;20147;-84
2022/07/08 00:37:25;;;;;;;8.55;3.87;;;;;;;16.43;85.35;98280.63;4520249;31;20127;-84
2022/07/08 00:39:52;;;;;;;8.48;3.83;;;;;;;16.04;87.37;98283.94;4519801;31;20134;-84
2022/07/08 00:42:19;;;;;;;12.63;4.15;;;;;;;16.19;86.88;98276.97;4520130;31;20438;-84
2022/07/08 00:44:46;;;;;;;9.85;4.60;;;;;;;15.98;88.08;98278.28;4520038;31;20075;-84
2022/07/08 00:47:13;;;;;;;9.85;4.78;;;;;;;16.15;86.70;98286.72;4519751;31;20084;-84
2022/07/08 00:49:40;;;;;;;9.15;4.50;;;;;;;16.26;87.03;98283.44;4520006;31;20135;-84
2022/07/08 00:52:08;;;;;;;8.77;3.92;;;;;;;16.51;85.38;98280.16;4520101;31;20135;-84
2022/07/08 00:54:35;;;;;;;11.10;4.40;;;;;;;16.12;87.53;98280.88;4519698;31;20095;-84
2022/07/08 00:57:02;;;;;;;9.43;4.25;;;;;;;16.04;87.68;98273.53;4505876;31;20123;-84
2022/07/08 00:59:29;;;;;;;10.07;4.30;;;;;;;16.14;87.75;98268.59;4505766;31;20155;-84
2022/07/08 01:01:57;;;;;;;8.38;4.53;;;;;;;16.13;87.88;98287.75;4519659;31;20103;-84
2022/07/08 01:04:24;;;;;;;10.63;4.68;;;;;;;15.91;87.96;98278.66;4520027;31;20418;-84
2022/07/08 01:06:51;;;;;;;8.55;4.30;;;;;;;16.01;87.69;98270.28;4519977;31;20072;-84
2022/07/08 01:09:18;;;;;;;10.32;4.82;;;;;;;16.06;87.89;98270.84;4519620;31;20092;-84
2022/07/08 01:11:46;;;;;;;10.82;4.72;;;;;;;16.01;87.96;98273.72;4519838;31;20426;-84
2022/07/08 01:14:14;;;;;;;8.73;4.57;;;;;;;16.19;87.32;98275.19;4519909;31;20106;-84
2022/07/08 01:16:41;;;;;;;9.32;4.78;;;;;;;16.70;84.93;98279.88;4505128;31;20080;-84
2022/07/08 01:19:08;;;;;;;11.35;4.40;;;;;;;16.19;86.62;98272.59;4505809;31;20103;-84
2022/07/08 01:21:35;;;;;;;10.85;5.07;;;;;;;16.04;87.31;98278.72;4519759;31;20135;-84
2022/07/08 01:24:03;;;;;;;9.80;4.47;;;;;;;16.62;85.24;98274.28;4505071;31;20485;-84
2022/07/08 01:26:30;;;;;;;8.38;4.50;;;;;;;16.50;85.55;98286.31;4519677;31;20080;-84
2022/07/08 01:28:57;;;;;;;9.02;4.30;;;;;;;16.43;85.27;98267.62;4519563;31;20409;-84
2022/07/08 01:31:24;;;;;;;10.35;4.72;;;;;;;16.41;85.63;98279.91;4519744;31;20154;-84
2022/07/08 01:33:51;;;;;;;9.77;4.82;;;;;;;16.56;85.90;98282.47;4519698;31;20148;-84
2022/07/08 01:36:18;;;;;;;10.43;5.00;;;;;;;16.44;85.90;98279.69;4519105;31;20109;-84
2022/07/08 01:38:45;;;;;;;8.63;5.00;;;;;;;16.54;85.86;98277.34;4519847;31;20568;-84
2022/07/08 01:41:11;;;;;;;9.73;4.32;;;;;;;16.60;85.53;98278.75;4519658;31;20155;-84
2022/07/08 01:43:38;;;;;;;9.77;4.50;;;;;;;16.73;84.27;98277.91;4519154;31;20098;-84
2022/07/08 01:46:05;;;;;;;10.30;5.10;;;;;;;16.70;84.72;98272.91;4519487;31;20080;-84
2022/07/08 01:48:32;;;;;;;9.73;4.82;;;;;;;16.36;86.18;98266.31;4519890;31;20148;-84
2022/07/08 01:50:59;;;;;;;9.52;4.82;;;;;;;16.17;87.80;98271.03;4519249;31;20114;-84
2022/07/08 01:53:26;;;;;;;10.00;4.78;;;;;;;16.34;87.31;98273.41;4519683;31;20147;-84
2022/07/08 01:55:53;;;;;;;9.93;4.87;;;;;;;16.23;87.45;98273.22;4519438;31;20124;-84
2022/07/08 01:58:21;;;;;;;9.57;5.18;;;;;;;16.56;86.34;98277.25;4505029;31;20152;-84
2022/07/08 02:00:48;;;;;;;11.23;5.10;;;;;;;16.57;85.73;98273.72;4519532;31;20107;-84
2022/07/08 02:03:15;;;;;;;8.57;4.78;;;;;;;16.47;86.64;98283.88;4505203;31;20106;-84
2022/07/08 02:05:42;;;;;;;10.18;5.00;;;;;;;16.98;84.30;98282.34;4519101;31;20072;-84
2022/07/08 02:08:09;;;;;;;9.80;5.12;;;;;;;16.40;86.70;98280.00;4519609;31;20143;-84
2022/07/08 02:13:26;;;;;;;10.40;5.55;;;;;;;16.74;85.51;98286.56;4510876;31;20529;-84
2022/07/08 02:15:53;;;;;;;13.68;5.25;;;;;;;16.99;84.26;98278.81;4519290;31;20080;-84
2022/07/08 02:18:20;;;;;;;9.40;5.00;;;;;;;17.05;84.27;98282.81;4519217;31;20560;-84
2022/07/08 02:20:47;;;;;;;10.38;5.12;;;;;;;16.62;85.75;98277.72;4519553;31;20599;-84
2022/07/08 02:23:14;;;;;;;10.20;4.93;;;;;;;16.86;85.22;98277.09;4519314;31;20079;-84
2022/07/08 02:25:41;;;;;;;9.60;5.05;;;;;;;17.24;83.52;98274.62;4518979;31;20418;-84
2022/07/08 02:28:08;;;;;;;9.85;5.50;;;;;;;16.18;88.16;98265.72;4519432;31;20486;-84
2022/07/08 02:30:35;;;;;;;11.40;4.90;;;;;;;16.65;86.22;98276.69;4519285;31;20147;-84
2022/07/08 02:33:02;;;;;;;9.82;4.82;;;;;;;16.94;84.46;98267.03;4519051;31;20190;-84
2022/07/08 02:35:29;;;;;;;9.65;4.43;;;;;;;16.66;86.09;98273.13;4518933;31;20474;-84
2022/07/08 02:37:56;;;;;;;10.13;4.95;;;;;;;16.33;87.95;98274.34;4519391;31;20119;-84
2022/07/08 02:40:23;;;;;;;11.52;5.40;;;;;;;16.28;88.32;98272.97;4518861;31;20504;-84
2022/07/08 02:42:50;;;;;;;9.30;4.55;;;;;;;16.44;87.57;98274.50;4519270;31;20147;-84
2022/07/08 02:45:17;;;;;;;8.80;4.32;;;;;;;16.13;89.50;98275.56;4519121;31;20071;-84
2022/07/08 02:47:43;;;;;;;9.45;4.70;;;;;;;16.43;88.11;98279.81;4518968;31;20147;-84
2022/07/08 02:50:10;;;;;;;10.13;4.15;;;;;;;16.16;89.34;98269.31;4519209;31;20150;-84
2022/07/08 02:52:37;;;;;;;8.70;4.35;;;;;;;16.13;90.03;98277.34;4519202;31;20118;-84
2022/07/08 02:55:05;;;;;;;8.38;4.43;;;;;;;15.92;90.97;98271.66;4518661;31;20546;-84
2022/07/08 02:57:32;;;;;;;9.38;4.55;;;;;;;16.14;89.92;98272.03;4518351;31;20144;-84
2022/07/08 02:59:59;;;;;;;11.38;4.80;;;;;;;16.17;90.46;98273.63;4519237;31;20111;-84
2022/07/08 03:02:26;;;;;;;9.18;4.87;;;;;;;15.94;91.56;98276.78;4504401;31;20159;-84
2022/07/08 03:04:53;;;;;;;10.45;4.90;;;;;;;16.30;89.19;98282.34;4519079;31;20369;-84
2022/07/08 03:07:21;;;;;;;8.35;4.43;;;;;;;16.50;88.81;98286.31;4518860;31;20095;-84
2022/07/08 03:09:48;;;;;;;8.25;4.40;;;;;;;16.64;87.86;98277.63;4519043;31;20151;-84
2022/07/08 03:12:15;;;;;;;9.05;4.72;;;;;;;16.36;89.26;98289.75;4504784;31;20175;-84
2022/07/08 03:14:42;;;;;;;13.52;5.28;;;;;;;16.22;90.04;98294.16;4518656;31;20098;-84
2022/07/08 03:17:09;;;;;;;9.15;4.50;;;;;;;16.28;89.86;98288.59;4519058;31;20437;-84
2022/07/08 03:19:36;;;;;;;9.18;4.50;;;;;;;16.26;89.55;98291.25;4518911;31;20115;-84
2022/07/08 03:22:03;;;;;;;9.93;4.70;;;;;;;16.33;89.00;98289.97;4518653;31;20138;-84
2022/07/08 03:24:30;;;;;;;8.77;4.40;;;;;;;16.58;87.70;98299.66;4518831;31;20079;-84
2022/07/08 03:26:57;;;;;;;10.57;4.55;;;;;;;16.26;89.00;98304.28;4518951;31;20110;-84
2022/07/08 03:29:26;;;;;;;9.55;4.70;;;;;;;16.34;89.06;98304.66;4518687;31;20092;-84
2022/07/08 03:31:53;;;;;;;9.10;4.60;;;;;;;16.17;89.90;98303.09;4504437;31;20105;-84
2022/07/08 03:34:20;;;;;;;9.48;4.60;;;;;;;16.31;89.51;98306.63;4518639;31;20099;-84
2022/07/08 03:36:47;;;;;;;9.45;4.90;;;;;;;16.40;88.93;98308.66;4518528;31;20513;-84
2022/07/08 03:39:14;;;;;;;8.88;4.65;;;;;;;16.40;89.13;98306.88;4518754;31;20131;-84
2022/07/08 03:41:41;;;;;;;8.65;4.85;;;;;;;16.31;89.61;98315.25;4518705;31;20810;-84
2022/07/08 03:44:08;;;;;;;9.40;4.72;;;;;;;16.62;88.15;98313.34;4518218;31;20593;-84
2022/07/08 03:46:35;;;;;;;9.00;4.70;;;;;;;16.36;89.04;98318.41;4518496;31;20166;-85
2022/07/08 03:49:02;;;;;;;9.02;4.53;;;;;;;16.20;89.98;98315.09;4518736;31;20110;-84
2022/07/08 03:51:29;;;;;;;8.23;4.37;;;;;;;16.67;88.08;98308.66;4518291;31;20088;-85
2022/07/08 03:53:56;;;;;;;10.75;4.85;;;;;;;16.45;88.29;98314.41;4518536;31;20167;-84
2022/07/08 03:56:23;;;;;;;9.18;4.68;;;;;;;16.47;89.36;98325.53;4518120;31;20135;-85
2022/07/08 03:58:50;;;;;;;9.63;4.57;;;;;;;16.74;88.03;98318.66;4518602;31;20163;-84
2022/07/08 04:01:17;;;;;;;9.50;5.35;;;;;;;16.51;88.70;98327.03;4518423;31;20106;-85
2022/07/08 04:03:44;;;;;;;9.98;5.07;;;;;;;16.48;89.52;98325.47;4518052;31;20102;-84
2022/07/08 04:06:12;;;;;;;9.75;5.10;;;;;;;16.45;89.82;98330.84;4518256;31;20163;-84
2022/07/08 04:08:39;;;;;;;9.32;5.28;;;;;;;16.43;89.72;98335.31;4520059;31;20541;-84
2022/07/08 04:11:06;;;;;;;8.32;4.85;;;;;;;16.59;88.54;98340.44;4519998;31;20146;-84
2022/07/08 04:13:33;;;;;;;8.68;4.68;;;;;;;16.24;90.48;98342.59;4520386;31;20143;-84
2022/07/08 04:16:00;;;;;;;9.57;4.87;;;;;;;16.53;88.69;98340.81;4520274;31;20119;-84
2022/07/08 04:18:27;;;;;;;9.63;5.00;;;;;;;16.31;89.49;98337.84;4520167;31;20447;-84
2022/07/08 04:20:55;;;;;;;9.05;4.85;;;;;;;16.51;89.12;98347.06;4520231;31;20083;-84
2022/07/08 04:23:22;;;;;;;10.32;4.93;;;;;;;17.09;86.33;98346.84;4520252;31;20138;-84
2022/07/08 04:25:56;;;;;;;9.25;4.82;;;;;;;16.78;87.98;98343.56;4519945;31;20111;-84
2022/07/08 04:28:23;;;;;;;8.52;4.68;;;;;;;16.78;88.02;98343.56;4520330;31;20572;-84
2022/07/08 04:30:51;;;;;;;9.05;5.10;;;;;;;16.66;88.59;98341.72;4520161;31;20434;-84
2022/07/08 04:33:18;;;;;;;9.20;4.90;;;;;;;17.16;86.59;98339.47;4519965;31;20106;-84
2022/07/08 04:35:45;;;;;;;10.88;5.55;;;;;;;17.00;87.29;98350.84;4519864;31;20118;-84
2022/07/08 04:38:12;;;;;;;8.75;5.10;;;;;;;16.63;89.40;98347.13;4505998;31;20167;-84
2022/07/08 04:40:39;;;;;;;9.73;4.93;;;;;;;16.97;88.13;98347.63;4519826;31;20587;-84
2022/07/08 04:43:06;;;;;;;10.93;5.87;;;;;;;17.20;87.14;98352.19;4520124;31;20143;-85
2022/07/08 04:45:33;;;;;;;10.50;5.37;;;;;;;16.95;88.19;98347.72;4519815;31;20107;-84
2022/07/08 04:48:00;;;;;;;10.05;5.10;;;;;;;17.08;87.46;98352.97;4520175;31;20131;-84
2022/07/08 04:50:27;;;;;;;9.77;5.10;;;;;;;16.49;89.56;98350.59;4520101;31;20493;-85
2022/07/08 04:52:54;;;;;;;8.63;4.65;;;;;;;16.64;89.73;98360.97;4519704;31;20143;-85
2022/07/08 04:55:30;;;;;;;9.05;5.10;;;;;;;16.74;88.07;98351.69;4519962;31;20103;-85
2022/07/08 04:58:03;;;;;;;9.75;5.45;;;;;;;16.54;88.94;98358.09;4520247;31;20099;-85
2022/07/08 05:00:31;;;;;;;8.35;4.85;;;;;;;16.69;88.93;98362.41;4519657;31;20096;-85
2022/07/08 05:02:59;;;;;;;10.07;5.20;;;;;;;16.88;88.42;98369.87;4519948;31;20107;-84
2022/07/08 05:05:27;;;;;;;9.45;4.97;;;;;;;16.78;88.76;98369.63;4519721;31;20509;-84
2022/07/08 05:07:57;;;;;;;10.25;5.05;;;;;;;16.67;89.68;98364.22;4505431;31;20103;-85
2022/07/08 05:10:24;;;;;;;9.70;5.40;;;;;;;16.63;90.20;98377.53;4519799;31;20159;-85
2022/07/08 05:12:52;;;;;;;11.20;5.37;;;;;;;17.07;88.58;98374.78;4519926;31;20102;-85
2022/07/08 05:15:20;;;;;;;9.43;5.40;;;;;;;16.86;89.59;98376.97;4519290;31;20151;-84
2022/07/08 05:17:52;;;;;;;9.68;5.25;;;;;;;17.03;88.37;98379.34;4505522;31;20170;-86
2022/07/08 05:20:20;;;;;;;11.50;5.70;;;;;;;17.18;88.20;98384.53;4518927;31;20434;-86
2022/07/08 05:22:47;;;;;;;9.15;4.93;;;;;;;17.31;86.95;98380.19;4519448;31;20171;-86
2022/07/08 05:25:15;;;;;;;13.52;5.40;;;;;;;17.24;86.80;98382.38;4519597;31;20130;-86
2022/07/08 05:27:42;;;;;;;11.50;5.25;;;;;;;17.15;87.52;98384.72;4519694;31;20107;-86
2022/07/08 05:30:10;;;;;;;10.90;5.57;;;;;;;16.96;87.71;98388.50;4505399;31;20084;-86
2022/07/08 05:32:38;;;;;;;14.35;5.75;;;;;;;17.11;88.07;98388.44;4519713;31;20135;-86
2022/07/08 05:35:06;;;;;;;10.00;5.78;;;;;;;17.20;87.84;98383.47;4519126;31;20155;-87
2022/07/08 05:37:35;;;;;;;12.88;5.97;;;;;;;17.35;86.21;98395.53;4519679;31;20148;-86
2022/07/08 05:40:02;;;;;;;10.27;5.70;;;;;;;16.89;88.83;98389.81;4519132;31;20091;-86
2022/07/08 05:42:29;;;;;;;10.73;5.82;;;;;;;16.99;88.39;98388.28;4519290;31;20353;-86
2022/07/08 05:44:56;;;;;;;10.70;6.35;;;;;;;17.26;86.85;98382.25;4519257;31;20112;-86
2022/07/08 05:47:23;;;;;;;10.10;5.97;;;;;;;17.42;86.50;98382.91;4519730;31;20167;-86
2022/07/08 05:49:50;;;;;;;10.98;6.12;;;;;;;17.44;85.92;98386.28;4519118;31;20187;-83
2022/07/08 05:52:18;;;;;;;9.65;5.70;;;;;;;17.39;86.50;98388.34;4519232;31;20439;-83
2022/07/08 05:54:48;;;;;;;9.80;5.70;;;;;;;17.47;86.73;98388.69;4519472;31;20132;-83
2022/07/08 05:57:15;;;;;;;9.52;5.28;;;;;;;17.54;85.80;98399.53;4519311;31;20452;-83
2022/07/08 05:59:43;;;;;;;9.48;5.18;;;;;;;17.71;85.07;98390.66;4519152;31;20094;-83
2022/07/08 06:02:10;;;;;;;10.27;4.97;;;;;;;17.55;85.57;98401.25;4505101;31;20102;-83
2022/07/08 06:04:38;;;;;;;10.38;5.47;;;;;;;17.79;83.47;98399.66;4518763;31;20164;-83
2022/07/08 06:07:05;;;;;;;10.60;5.50;;;;;;;18.30;82.62;98399.69;4513730;31;20095;-83
2022/07/08 06:09:32;;;;;;;11.05;5.40;;;;;;;18.11;82.49;98399.25;4503421;31;20104;-83
2022/07/08 06:11:59;;;;;;;9.48;5.03;;;;;;;18.66;80.25;98387.66;4502813;31;20514;-83
2022/07/08 06:14:26;;;;;;;10.82;4.72;;;;;;;18.77;79.38;98393.78;4504032;31;20134;-81
2022/07/08 06:16:53;;;;;;;9.98;4.75;;;;;;;19.39;76.62;98398.06;4503649;31;20429;-83
2022/07/08 06:19:20;;;;;;;8.73;4.72;;;;;;;19.24;76.64;98400.00;4503443;31;20157;-83
2022/07/08 06:21:47;;;;;;;9.20;4.78;;;;;;;19.24;75.35;98391.31;4503313;31;20106;-82
2022/07/08 06:24:14;;;;;;;8.82;4.55;;;;;;;19.62;74.46;98399.87;4503061;31;20092;-82
2022/07/08 06:26:43;;;;;;;8.52;4.18;;;;;;;20.19;72.37;98396.41;4503302;31;20143;-82
2022/07/08 06:29:11;;;;;;;7.60;3.70;;;;;;;20.40;71.46;98400.97;4503506;31;20132;-82
2022/07/08 06:31:38;;;;;;;6.53;3.70;;;;;;;21.22;69.11;98397.09;4503079;31;20076;-83
2022/07/08 06:34:05;;;;;;;7.07;3.97;;;;;;;22.02;65.03;98388.78;4503162;31;20088;-83
2022/07/08 06:36:32;;;;;;;8.35;3.78;;;;;;;22.47;63.61;98399.84;4502292;31;20146;-83
2022/07/08 06:38:59;;;;;;;7.97;3.90;;;;;;;22.31;63.43;98396.00;4503086;31;20098;-83
2022/07/08 06:41:30;;;;;;;6.20;3.33;;;;;;;22.73;61.96;98400.19;4503361;31;20076;-83
2022/07/08 06:43:57;;;;;;;7.90;3.40;;;;;;;22.42;61.88;98398.56;4503371;31;20119;-84
2022/07/08 06:46:24;;;;;;;7.50;4.07;;;;;;;21.74;64.26;98398.13;4502958;31;20539;-84
2022/07/08 06:48:52;;;;;;;8.65;4.03;;;;;;;21.57;66.17;98391.63;4503381;31;20087;-84
2022/07/08 06:51:20;;;;;;;9.50;3.80;;;;;;;21.43;67.39;98404.22;4503146;31;20106;-84
2022/07/08 06:56:33;;;;;;;7.97;4.25;;;;;;;21.29;67.32;98398.31;4503171;31;20502;-83
2022/07/08 06:59:00;;;;;;;9.60;4.60;;;;;;;20.44;70.03;98405.06;4514860;31;20194;-83
2022/07/08 07:01:26;;;;;;;8.55;4.57;;;;;;;20.55;69.83;98389.34;4503140;31;20100;-84
2022/07/08 07:03:53;;;;;;;8.20;3.55;;;;;;;20.74;70.15;98396.59;4502990;31;20096;-84
2022/07/08 07:06:21;;;;;;;9.90;4.15;;;;;;;21.08;67.87;98381.66;4503331;31;20700;-81
2022/07/08 07:08:47;;;;;;;11.18;4.37;;;;;;;21.06;68.21;98384.41;4503228;31;20456;-80
2022/07/08 07:11:14;;;;;;;8.00;3.65;;;;;;;20.88;68.11;98395.50;4505079;31;20112;-82
2022/07/08 07:13:42;;;;;;;6.32;3.53;;;;;;;20.73;68.39;98389.66;4505002;31;20092;-81
2022/07/08 07:16:09;;;;;;;7.15;3.85;;;;;;;20.79;67.81;98394.44;4502805;31;20147;-80
2022/07/08 07:18:36;;;;;;;7.43;3.67;;;;;;;20.62;69.98;98395.75;4503018;31;20080;-80
2022/07/08 07:21:03;;;;;;;7.85;3.80;;;;;;;20.80;69.55;98396.94;4502647;31;20159;-81
2022/07/08 07:23:30;;;;;;;6.78;3.50;;;;;;;21.45;68.03;98405.75;4502905;31;20136;-81
2022/07/08 07:25:58;;;;;;;9.70;4.10;;;;;;;21.94;66.23;98412.22;4508383;31;20108;-82
2022/07/08 07:28:25;;;;;;;6.43;3.33;;;;;;;22.79;63.37;98406.75;4505743;31;20084;-82
2022/07/08 07:30:52;;;;;;;5.68;3.22;;;;;;;22.27;63.78;98407.75;4506789;31;20070;-83
2022/07/08 07:33:19;;;;;;;5.57;3.08;;;;;;;21.98;63.50;98408.37;4505509;31;20151;-82
2022/07/08 07:35:47;;;;;;;6.53;3.42;;;;;;;21.87;63.99;98408.44;4505028;31;20119;-82
2022/07/08 07:38:14;;;;;;;6.07;3.30;;;;;;;22.40;63.15;98408.37;4506744;31;20067;-81
2022/07/08 07:40:41;;;;;;;6.85;3.35;;;;;;;22.54;61.58;98408.00;4506220;31;20067;-81
2022/07/08 07:43:08;;;;;;;10.05;3.37;;;;;;;22.55;61.39;98403.62;4504469;31;20100;-82
2022/07/08 07:45:35;;;;;;;6.65;3.40;;;;;;;23.01;61.99;98409.19;4503782;31;20167;-82
2022/07/08 07:48:02;;;;;;;9.30;3.03;;;;;;;23.61;59.19;98406.53;4502560;31;20099;-80
2022/07/08 07:50:32;;;;;;;7.80;3.47;;;;;;;23.34;58.67;98404.53;4502774;31;20080;-80
2022/07/08 07:52:59;;;;;;;7.70;3.20;;;;;;;23.38;58.68;98409.38;4502763;31;20084;-80
2022/07/08 07:55:26;;;;;;;6.62;3.33;;;;;;;23.27;58.90;98412.12;4502138;31;20509;-80
2022/07/08 07:57:53;;;;;;;6.72;3.60;;;;;;;23.63;57.89;98417.75;4502249;31;20199;-80
2022/07/08 08:00:20;;;;;;;6.62;3.30;;;;;;;23.52;58.12;98416.06;4502200;31;20108;-80
2022/07/08 08:02:54;;;;;;;9.55;3.70;;;;;;;23.60;60.05;98410.09;4502053;31;20097;-78
2022/07/08 08:05:21;;;;;;;7.60;3.70;;;;;;;23.44;58.38;98415.09;4502044;31;20103;-83
2022/07/08 08:07:49;;;;;;;11.55;4.03;;;;;;;23.82;57.78;98415.13;4502125;31;20088;-80
2022/07/08 08:10:16;;;;;;;6.55;3.62;;;;;;;23.89;57.74;98426.75;4503429;31;20148;-84
2022/07/08 08:12:43;;;;;;;7.97;3.50;;;;;;;24.18;57.30;98423.25;4503347;31;20115;-84
2022/07/08 08:15:10;;;;;;;7.47;3.67;;;;;;;23.69;58.80;98421.63;4506692;31;20108;-85
2022/07/08 08:17:41;;;;;;;6.37;3.50;;;;;;;23.95;56.87;98439.37;4502740;31;20470;-83
2022/07/08 08:20:10;;;;;;;6.90;3.65;;;;;;;23.47;58.14;98434.06;4501232;31;20080;-84
2022/07/08 08:22:38;;;;;;;8.52;4.25;;;;;;;24.14;56.79;98443.78;4501936;31;20127;-83
2022/07/08 08:25:25;;;;;;;;;;;;;;;24.30;55.31;98445.00;4502400;31;20096;-83
2022/07/08 08:27:53;;;;;;;7.32;3.60;;;;;;;24.17;56.63;98450.59;4500847;31;20034;-84
2022/07/08 08:30:20;;;;;;;7.05;3.83;;;;;;;24.99;53.02;98450.78;4501858;31;20127;-85
2022/07/08 08:32:47;;;;;;;9.23;4.05;;;;;;;24.37;55.37;98448.78;4502004;31;20104;-84
2022/07/08 08:35:14;;;;;;;7.90;3.80;;;;;;;24.47;54.97;98462.78;4501497;31;20136;-83
2022/07/08 08:37:41;;;;;;;6.95;4.00;;;;;;;25.21;53.02;98464.59;4501483;31;20108;-84
2022/07/08 08:40:10;;;;;;;7.07;4.25;;;;;;;24.76;53.02;98460.84;4502383;31;20099;-84
2022/07/08 08:42:38;;;;;;;8.10;3.80;;;;;;;25.37;51.31;98456.81;4500598;31;20092;-83
2022/07/08 08:45:06;;;;;;;8.57;3.78;;;;;;;25.24;51.64;98459.81;4501333;31;20104;-83
2022/07/08 08:47:34;;;;;;;10.35;3.92;;;;;;;23.97;55.13;98468.22;4513891;31;20092;-83
2022/07/08 08:50:53;;;;;;;7.87;4.05;;;;;;;24.16;55.44;98470.84;4501727;31;20524;-83
2022/07/08 08:52:49;;;;;;;;;;;;;;;24.80;56.03;98472.78;4501913;31;20152;-83
2022/07/08 08:55:35;;;;;;;7.70;4.37;;;;;;;25.98;51.70;98465.88;4502853;31;20003;-83
2022/07/08 08:58:04;;;;;;;9.18;4.40;;;;;;;24.69;52.64;98456.31;4503831;31;20167;-84
2022/07/08 09:00:33;;;;;;;8.15;4.62;;;;;;;24.43;53.49;98466.66;4503800;31;20442;-84
2022/07/08 09:03:00;;;;;;;10.48;4.55;;;;;;;24.27;53.96;98466.38;4515999;31;20173;-84
2022/07/08 09:05:28;;;;;;;8.43;4.35;;;;;;;23.37;56.33;98460.38;4503846;31;20096;-83
2022/07/08 09:07:56;;;;;;;9.48;4.70;;;;;;;24.08;56.37;98454.91;4504540;31;20103;-82
2022/07/08 09:10:23;;;;;;;9.77;4.82;;;;;;;24.63;53.91;98455.06;4504127;31;20482;-83
2022/07/08 09:13:04;;;;;;;7.47;4.20;;;;;;;24.95;53.03;98467.03;4503293;31;20107;-82
2022/07/08 09:15:35;;;;;;;8.52;4.32;;;;;;;25.03;50.78;98456.59;4503622;31;20468;-83
2022/07/08 09:18:05;;;;;;;6.35;3.80;;;;;;;25.00;51.36;98449.78;4503839;31;20080;-82
2022/07/08 09:20:43;;;;;;;11.35;4.18;;;;;;;24.73;51.27;98432.13;4503435;31;20106;-83
2022/07/08 09:23:16;;;;;;;8.15;4.03;;;;;;;24.99;51.95;98442.00;4503662;31;20155;-83
2022/07/08 09:25:51;;;;;;;7.20;4.10;;;;;;;24.16;54.26;98449.75;4503447;31;20684;-82
2022/07/08 09:28:30;;;;;;;7.75;3.90;;;;;;;24.22;54.60;98443.06;4503562;31;20245;-83
2022/07/08 09:31:00;;;;;;;9.10;3.67;;;;;;;23.65;56.39;98445.63;4503529;31;20080;-82
2022/07/08 09:33:27;;;;;;;8.18;3.83;;;;;;;23.52;55.12;98437.13;4503425;31;20112;-84
2022/07/08 09:35:55;;;;;;;8.82;4.12;;;;;;;23.77;56.46;98443.69;4503313;31;20156;-83
2022/07/08 09:38:23;;;;;;;6.97;3.37;;;;;;;23.86;53.53;98450.75;4503698;31;20084;-83
2022/07/08 09:40:58;;;;;;;6.28;3.47;;;;;;;24.07;52.40;98455.88;4503076;31;20080;-83
2022/07/08 09:43:26;;;;;;;8.75;3.70;;;;;;;24.78;51.92;98456.28;4503684;31;20140;-83
2022/07/08 09:45:53;;;;;;;7.18;3.50;;;;;;;25.14;50.09;98458.22;4503132;31;20105;-83
2022/07/08 09:48:24;;;;;;;7.70;4.05;;;;;;;24.58;51.58;98462.59;4503110;31;20152;-83
2022/07/08 09:50:51;;;;;;;9.73;4.15;;;;;;;25.05;51.52;98441.44;4503385;31;20147;-84
2022/07/08 09:53:34;;;;;;;9.82;4.28;;;;;;;24.80;51.19;98461.41;4503606;31;20137;-84
2022/07/08 09:56:02;;;;;;;8.20;4.00;;;;;;;25.83;49.80;98462.91;4503086;31;20167;-84
2022/07/08 09:58:31;;;;;;;7.62;3.87;;;;;;;25.38;49.29;98451.38;4503464;31;20084;-84
2022/07/08 10:01:00;;;;;;;7.80;3.80;;;;;;;25.00;50.96;98460.34;4503371;31;20502;-83
2022/07/08 10:03:28;;;;;;;8.38;4.25;;;;;;;24.92;50.47;98465.53;4503239;31;20103;-82
2022/07/08 10:05:56;;;;;;;8.57;4.28;;;;;;;23.47;52.99;98456.94;4501733;31;20108;-83
2022/07/08 10:08:23;;;;;;;7.80;4.25;;;;;;;23.79;52.91;98456.72;4503176;31;20167;-84
2022/07/08 10:10:53;;;;;;;8.15;4.20;;;;;;;24.22;52.05;98457.09;4503187;31;20155;-82
2022/07/08 10:13:21;;;;;;;9.57;4.20;;;;;;;24.33;53.33;98465.84;4503318;31;20096;-82
2022/07/08 10:15:49;;;;;;;6.82;3.72;;;;;;;23.63;55.48;98465.19;4502750;31;20167;-82
2022/07/08 10:18:26;;;;;;;9.27;4.53;;;;;;;24.30;54.61;98472.19;4503317;31;20146;-83
2022/07/08 10:20:53;;;;;;;;;;;;;;;24.38;54.72;98472.38;4502475;31;20183;-82
2022/07/08 10:23:27;;;;;;;10.00;4.00;;;;;;;24.69;53.62;98469.50;4501582;31;19990;-83
2022/07/08 10:25:57;;;;;;;10.05;3.78;;;;;;;24.28;53.80;98453.06;4515101;31;20462;-82
2022/07/08 10:28:35;;;;;;;7.12;3.85;;;;;;;24.14;57.39;98466.69;4503342;31;20417;-82
2022/07/08 10:31:02;;;;;;;20.98;10.38;;;;;;;24.79;52.72;98465.03;4502796;31;20332;-82
2022/07/08 10:33:30;;;;;;;9.52;4.10;;;;;;;24.37;53.91;98478.63;4503055;31;20473;-82
2022/07/08 10:36:08;;;;;;;8.32;3.95;;;;;;;23.95;55.01;98467.53;4503367;31;20141;-82
2022/07/08 10:38:41;;;;;;;;;;;;;;;24.30;54.68;98466.94;4503194;31;20115;-82
2022/07/08 10:41:18;;;;;;;7.75;3.90;;;;;;;24.07;55.00;98463.78;4503143;31;19964;-83
2022/07/08 10:43:55;;;;;;;8.25;3.92;;;;;;;24.46;54.03;98475.13;4502996;31;20123;-83
2022/07/08 10:46:24;;;;;;;6.47;3.70;;;;;;;24.69;52.86;98469.50;4502809;31;20163;-83
2022/07/08 10:48:51;;;;;;;9.30;3.80;;;;;;;24.36;54.00;98470.84;4503051;31;20093;-82
2022/07/08 10:51:18;;;;;;;6.93;3.80;;;;;;;23.86;54.81;98469.19;4502684;31;20527;-83
2022/07/08 10:54:05;;;;;;;7.80;3.78;;;;;;;23.92;54.75;98478.34;4503206;31;20096;-82
2022/07/08 10:56:54;;;;;;;7.15;3.60;;;;;;;23.89;56.44;98484.72;4502879;31;20506;-82
2022/07/08 10:59:22;;;;;;;8.20;3.95;;;;;;;24.12;54.23;98487.06;4502795;31;20143;-83
2022/07/08 11:01:57;;;;;;;6.35;3.67;;;;;;;24.52;52.69;98489.53;4502873;31;20088;-82
2022/07/08 11:04:36;;;;;;;6.37;3.60;;;;;;;24.30;54.36;98487.19;4502496;31;20156;-81
2022/07/08 11:07:15;;;;;;;8.27;3.40;;;;;;;24.23;53.93;98492.19;4503174;31;20103;-82
2022/07/08 11:09:43;;;;;;;7.07;3.90;;;;;;;23.82;56.06;98499.44;4502856;31;20084;-82
2022/07/08 11:12:15;;;;;;;6.40;3.62;;;;;;;24.32;54.00;98499.28;4502567;31;20100;-83
2022/07/08 11:14:45;;;;;;;7.53;3.87;;;;;;;24.51;54.10;98499.25;4502672;31;20092;-83
2022/07/08 11:17:16;;;;;;;7.20;3.42;;;;;;;24.94;53.47;98510.25;4502028;31;20116;-83
2022/07/08 11:19:44;;;;;;;8.07;3.08;;;;;;;24.58;54.03;98506.63;4502520;31;20114;-82
2022/07/08 11:22:11;;;;;;;7.53;3.97;;;;;;;24.19;55.29;98506.63;4501689;31;20147;-83
2022/07/08 11:24:51;;;;;;;6.20;3.22;;;;;;;24.16;54.31;98510.38;4502663;31;20539;-83
2022/07/08 11:27:23;;;;;;;9.10;3.40;;;;;;;23.51;57.52;98511.84;4502725;31;20438;-83
2022/07/08 11:29:53;;;;;;;6.97;3.53;;;;;;;23.65;56.21;98510.62;4502081;31;20171;-82
2022/07/08 11:32:21;;;;;;;7.47;3.25;;;;;;;23.22;58.06;98510.94;4501765;31;20688;-82
2022/07/08 11:34:49;;;;;;;12.20;3.72;;;;;;;23.73;57.50;98500.25;4481788;31;612827;-82
2022/07/08 11:37:17;;;;;;;6.03;3.08;;;;;;;24.34;55.57;98515.78;4502435;31;20136;-81
2022/07/08 11:39:45;;;;;;;12.48;4.35;;;;;;;23.81;55.65;98525.91;4502158;31;20214;-82
2022/07/08 11:42:13;;;;;;;7.28;2.97;;;;;;;23.76;56.62;98525.50;4502666;31;20155;-82